Time;durP1;ratioP1;P1;durP2;ratioP2;P2;SDS_P1;SDS_P2;PMS_P1;PMS_P2;Temp;Humidity;BMP_temperature;BMP_pressure;BME280_temperature;BME280_humidity;BME280_pressure;Samples;Min_cycle;Max_cycle;Signal;HPM_P1;HPM_P2
2023/09/24 00:02:21;;;;;;;7.10;6.00;;;;;;;13.57;65.90;100912.97;111715;1248;21974;-79
2023/09/24 00:05:09;;;;;;;10.60;5.20;;;;;;;13.56;65.73;100918.45;111824;1247;23577;-80
2023/09/24 00:08:06;;;;;;;8.00;4.90;;;;;;;13.55;65.85;100924.26;112131;1247;21981;-80
2023/09/24 00:10:56;;;;;;;7.10;5.40;;;;;;;13.54;66.04;100928.67;112052;1247;24307;-82
2023/09/24 00:13:44;;;;;;;5.00;4.60;;;;;;;13.52;65.95;100931.36;111531;1252;21975;-80
2023/09/24 00:16:44;;;;;;;7.40;5.30;;;;;;;13.51;66.09;100931.42;111579;1249;22436;-82
2023/09/24 00:19:21;;;;;;;6.90;5.20;;;;;;;13.50;66.12;100928.80;111784;1249;21923;-79
2023/09/24 00:22:17;;;;;;;7.80;5.20;;;;;;;13.51;66.10;100929.30;112789;1238;21943;-81
2023/09/24 00:24:58;;;;;;;5.90;5.40;;;;;;;13.50;66.05;100924.63;112450;1243;21961;-80
2023/09/24 00:27:37;;;;;;;9.70;5.40;;;;;;;13.49;66.01;100923.10;112195;1243;22382;-82
2023/09/24 00:30:14;;;;;;;9.10;5.10;;;;;;;13.47;65.89;100917.40;111828;1248;21952;-80
2023/09/24 00:33:00;;;;;;;6.80;5.40;;;;;;;13.45;66.12;100921.31;112423;1243;21975;-79
2023/09/24 00:35:47;;;;;;;7.00;5.50;;;;;;;13.42;66.19;100919.53;112055;1249;21973;-80
2023/09/24 00:38:42;;;;;;;11.90;5.30;;;;;;;13.39;66.30;100917.37;111865;1249;23021;-80
2023/09/24 00:41:17;;;;;;;5.50;5.00;;;;;;;13.36;66.48;100914.33;112041;1249;21994;-80
2023/09/24 00:43:57;;;;;;;5.50;4.90;;;;;;;13.36;66.53;100909.13;111811;1250;21988;-80
2023/09/24 00:46:42;;;;;;;7.00;5.00;;;;;;;13.33;66.69;100911.14;111802;1250;22368;-79
2023/09/24 00:49:45;;;;;;;5.60;4.90;;;;;;;13.30;66.71;100910.89;112242;1244;21962;-80
2023/09/24 00:52:25;;;;;;;5.00;4.30;;;;;;;13.28;66.89;100908.69;112422;1244;21956;-79
2023/09/24 00:55:16;;;;;;;12.90;5.60;;;;;;;13.27;66.98;100909.80;112216;1243;23029;-82
2023/09/24 00:58:01;;;;;;;5.30;4.80;;;;;;;13.26;66.90;100907.90;112435;1244;23610;-81
2023/09/24 01:00:52;;;;;;;8.50;5.30;;;;;;;13.25;67.19;100906.19;112249;1244;22884;-81
2023/09/24 01:03:43;;;;;;;11.60;5.00;;;;;;;13.25;67.11;100905.85;111739;1251;21991;-80
2023/09/24 01:06:18;;;;;;;5.40;4.90;;;;;;;13.24;67.26;100908.52;111916;1245;23113;-79
2023/09/24 01:08:59;;;;;;;5.50;4.90;;;;;;;13.24;67.19;100914.45;112607;1238;22940;-80
2023/09/24 01:11:34;;;;;;;6.90;4.90;;;;;;;13.23;66.98;100913.08;113056;1238;21984;-80
2023/09/24 01:14:05;;;;;;;6.40;5.20;;;;;;;13.21;67.10;100912.46;113092;1238;23001;-80
2023/09/24 01:16:43;;;;;;;5.90;4.80;;;;;;;13.21;67.17;100912.80;112425;1244;21950;-80
2023/09/24 01:19:32;;;;;;;;;;;;;;;;;;;;;
2023/09/24 01:22:37;;;;;;;6.50;4.60;;;;;;;13.13;67.11;100903.70;112447;1242;24620;-79
2023/09/24 01:25:18;;;;;;;6.60;4.60;;;;;;;13.10;67.14;100905.06;111710;1247;21955;-80
2023/09/24 01:27:55;;;;;;;5.60;4.80;;;;;;;13.04;67.03;100907.55;112100;1248;23645;-76
2023/09/24 01:30:30;;;;;;;;;;;;;;;13.00;67.15;100909.81;111843;1248;23026;-78
2023/09/24 01:33:41;;;;;;;;;;;;;;;;;;;;;
2023/09/24 01:37:31;;;;;;;6.80;5.80;;;;;;;12.73;67.74;100929.70;111556;1244;22006;-78
2023/09/24 01:41:13;;;;;;;6.20;5.60;;;;;;;12.67;67.87;100934.27;110862;1258;21964;-80
2023/09/24 01:43:59;;;;;;;6.20;5.60;;;;;;;12.62;67.95;100934.66;111299;1249;22723;-79
2023/09/24 01:46:56;;;;;;;5.90;5.10;;;;;;;12.58;68.17;100945.78;111785;1249;21954;-78
2023/09/24 01:50:01;;;;;;;7.60;5.20;;;;;;;12.54;68.28;100956.77;111624;1249;22751;-79
2023/09/24 01:53:24;;;;;;;;;;;;;;;;;;;;;
2023/09/24 01:56:21;;;;;;;6.60;5.30;;;;;;;12.41;68.39;100967.02;111847;1249;21987;-79
2023/09/24 01:59:28;;;;;;;;;;;;;;;;;;;;;
2023/09/24 02:02:18;;;;;;;6.60;5.70;;;;;;;12.31;68.69;100971.71;111582;1250;23479;-79
2023/09/24 02:05:00;;;;;;;8.90;5.30;;;;;;;12.29;68.86;100973.36;111037;1256;22048;-79
2023/09/24 02:08:10;;;;;;;9.70;6.70;;;;;;;12.25;68.96;100977.15;110887;1254;23032;-78
2023/09/24 02:11:08;;;;;;;7.20;6.00;;;;;;;12.22;69.07;100972.91;111042;1255;23779;-78
2023/09/24 02:14:13;;;;;;;8.40;5.70;;;;;;;12.19;69.25;100974.05;111341;1249;22883;-78
2023/09/24 02:17:26;;;;;;;5.90;5.40;;;;;;;12.14;69.56;100988.52;111892;1244;22045;-79
2023/09/24 02:20:58;;;;;;;;;;;;;;;;;;;;;
2023/09/24 02:24:11;;;;;;;7.10;6.00;;;;;;;12.10;69.97;100990.95;113407;1231;21934;-79
2023/09/24 02:27:13;;;;;;;6.90;5.90;;;;;;;12.09;70.02;100991.84;113345;1232;23004;-78
2023/09/24 02:30:44;;;;;;;;;;;;;;;;;;;;;
2023/09/24 02:33:48;;;;;;;7.10;5.70;;;;;;;12.03;70.08;101004.95;113387;1232;23683;-78
2023/09/24 02:37:22;;;;;;;7.10;6.00;;;;;;;12.02;70.36;101009.52;113502;1232;21932;-78
2023/09/24 02:40:53;;;;;;;6.90;5.90;;;;;;;11.96;70.49;101004.65;113521;1232;23752;-79
2023/09/24 02:43:50;;;;;;;6.60;6.00;;;;;;;11.98;70.60;101017.84;113544;1232;21929;-79
2023/09/24 02:47:09;;;;;;;6.50;5.50;;;;;;;12.05;70.73;101036.61;113508;1232;23544;-78
2023/09/24 02:49:57;;;;;;;8.50;6.20;;;;;;;12.08;70.74;101041.73;112800;1238;22735;-79
2023/09/24 02:52:59;;;;;;;7.60;5.80;;;;;;;12.10;70.56;101048.32;112573;1238;21965;-80
2023/09/24 02:56:15;;;;;;;6.90;5.60;;;;;;;12.11;70.68;101055.63;111802;1248;23577;-79
2023/09/24 03:03:25;;;;;;;11.10;6.10;;;;;;;12.11;70.60;101061.20;111342;1255;21968;-79
2023/09/24 03:06:26;;;;;;;;;;;;;;;;;;;;;
2023/09/24 03:09:51;;;;;;;7.80;5.80;;;;;;;12.14;70.28;101064.77;110811;1261;21981;-79
2023/09/24 03:13:22;;;;;;;7.40;5.30;;;;;;;12.11;70.19;101066.42;110638;1254;22020;-79
2023/09/24 03:16:35;;;;;;;5.90;5.30;;;;;;;12.08;70.24;101074.05;111148;1257;23109;-79
2023/09/24 03:19:56;;;;;;;7.20;6.30;;;;;;;12.05;70.28;101080.40;110928;1257;21999;-79
2023/09/24 03:23:21;;;;;;;;;;;;;;;;;;;;;
2023/09/24 03:27:25;;;;;;;;;;;;;;;;;;;;;
2023/09/24 03:30:30;;;;;;;8.40;5.70;;;;;;;11.96;70.42;101083.16;110639;1261;21981;-79
2023/09/24 03:33:20;;;;;;;7.40;6.70;;;;;;;11.94;70.56;101083.02;110195;1266;22003;-78
2023/09/24 03:36:15;;;;;;;;;;;;;;;11.96;70.53;101081.95;110163;1266;21947;-79
2023/09/24 03:39:18;;;;;;;6.10;5.50;;;;;;;11.86;70.81;101085.70;110062;1260;21967;-80
2023/09/24 03:42:39;;;;;;;8.50;6.20;;;;;;;11.80;70.78;101089.71;110623;1261;23054;-79
2023/09/24 03:46:03;;;;;;;;;;;;;;;;;;;;;
2023/09/24 03:49:13;;;;;;;9.50;6.50;;;;;;;11.74;70.69;101096.35;111259;1255;22755;-79
2023/09/24 03:52:42;;;;;;;7.40;6.60;;;;;;;11.68;70.89;101095.31;112097;1242;21931;-79
2023/09/24 03:56:33;;;;;;;7.10;6.40;;;;;;;11.64;70.96;101099.09;111822;1250;22002;-78
2023/09/24 03:59:54;;;;;;;6.50;5.90;;;;;;;11.61;71.09;101110.52;111382;1251;21961;-79
2023/09/24 04:03:18;;;;;;;10.30;7.10;;;;;;;11.57;71.14;101115.34;111475;1247;21962;-79
2023/09/24 04:06:26;;;;;;;;;;;;;;;;;;;;;
2023/09/24 04:09:57;;;;;;;13.70;8.00;;;;;;;11.53;71.52;101122.44;111760;1253;22661;-79
2023/09/24 04:12:47;;;;;;;14.40;7.10;;;;;;;11.54;71.39;101121.69;111387;1245;21979;-79
2023/09/24 04:15:39;;;;;;;8.30;7.40;;;;;;;11.52;71.32;101128.04;111617;1250;22960;-78
2023/09/24 04:18:10;;;;;;;8.70;7.10;;;;;;;11.52;71.39;101134.85;111592;1250;21968;-79
2023/09/24 04:20:39;;;;;;;7.80;7.00;;;;;;;11.51;71.42;101133.81;111704;1250;22583;-79
2023/09/24 04:23:09;;;;;;;8.20;6.90;;;;;;;11.50;71.41;101134.37;111869;1249;22872;-80
2023/09/24 04:25:40;;;;;;;8.10;7.30;;;;;;;11.49;71.47;101137.20;111061;1252;21960;-79
2023/09/24 04:28:13;;;;;;;11.90;7.60;;;;;;;11.48;71.63;101137.41;111380;1253;23103;-78
2023/09/24 04:30:49;;;;;;;7.00;6.40;;;;;;;11.47;71.67;101134.12;111237;1253;21945;-78
2023/09/24 04:33:20;;;;;;;11.80;6.90;;;;;;;11.46;71.70;101135.20;111949;1248;23682;-80
2023/09/24 04:35:48;;;;;;;12.10;6.80;;;;;;;11.45;71.77;101140.80;111702;1248;23704;-79
2023/09/24 04:38:43;;;;;;;8.40;7.20;;;;;;;11.42;71.85;101144.00;112316;1244;23696;-77
2023/09/24 04:41:58;;;;;;;7.80;6.90;;;;;;;11.36;71.92;101137.40;112106;1244;21950;-77
2023/09/24 04:45:19;;;;;;;8.50;7.40;;;;;;;11.28;71.99;101137.10;111981;1244;22400;-76
2023/09/24 04:48:20;;;;;;;8.90;6.30;;;;;;;11.30;72.28;101153.42;112669;1239;21951;-76
2023/09/24 04:51:11;;;;;;;7.80;6.70;;;;;;;11.32;72.42;101158.06;112652;1239;21951;-77
2023/09/24 04:54:08;;;;;;;11.20;7.00;;;;;;;11.36;72.53;101165.27;112655;1239;22164;-76
2023/09/24 04:57:35;;;;;;;7.30;6.60;;;;;;;11.36;72.51;101169.30;112072;1247;23685;-79
2023/09/24 05:01:13;;;;;;;11.00;7.30;;;;;;;11.39;72.63;101175.64;111828;1247;21984;-78
2023/09/24 05:04:17;;;;;;;11.00;8.30;;;;;;;11.42;72.73;101180.44;111216;1255;22430;-78
2023/09/24 05:07:31;;;;;;;11.40;7.80;;;;;;;11.48;72.92;101183.41;110977;1256;22002;-79
2023/09/24 05:10:33;;;;;;;;;;;;;;;;;;;;;
2023/09/24 05:13:36;;;;;;;10.40;7.80;;;;;;;11.57;72.75;101183.52;110881;1257;21566;-77
2023/09/24 05:16:53;;;;;;;8.50;7.40;;;;;;;11.62;72.85;101179.89;111096;1253;23616;-76
2023/09/24 05:20:10;;;;;;;;;;;;;;;;;;;;;
2023/09/24 05:23:30;;;;;;;9.20;7.70;;;;;;;11.75;72.89;101195.38;110754;1257;22197;-79
2023/09/24 05:26:14;;;;;;;8.80;7.90;;;;;;;11.82;72.79;101198.98;110894;1257;23599;-78
2023/09/24 05:28:58;;;;;;;9.90;8.70;;;;;;;11.90;72.65;101208.55;110481;1260;22184;-77
2023/09/24 05:31:33;;;;;;;11.30;9.00;;;;;;;11.98;72.56;101214.23;110089;1263;22038;-77
2023/09/24 05:34:20;;;;;;;11.20;8.00;;;;;;;12.05;72.53;101217.17;110351;1263;22003;-76
2023/09/24 05:37:08;;;;;;;9.90;8.00;;;;;;;12.12;72.32;101217.48;110432;1259;23081;-76
2023/09/24 05:39:59;;;;;;;8.70;7.70;;;;;;;12.19;72.48;101220.60;110838;1249;23705;-78
2023/09/24 05:42:41;;;;;;;10.20;7.50;;;;;;;12.28;72.29;101227.30;111815;1250;21951;-78
2023/09/24 05:45:21;;;;;;;9.80;7.50;;;;;;;12.37;72.15;101229.48;111177;1253;23581;-78
2023/09/24 05:47:58;;;;;;;8.90;8.10;;;;;;;12.43;71.76;101233.32;111203;1254;23083;-77
2023/09/24 05:51:08;;;;;;;8.80;8.10;;;;;;;12.50;71.62;101237.96;111639;1247;21960;-78
2023/09/24 05:53:49;;;;;;;10.30;8.60;;;;;;;12.54;71.39;101238.88;112007;1241;22069;-76
2023/09/24 05:56:30;;;;;;;10.60;7.90;;;;;;;12.62;71.31;101241.06;112394;1241;24364;-77
2023/09/24 05:59:01;;;;;;;13.10;8.40;;;;;;;12.70;71.19;101240.13;112484;1238;22444;-78
2023/09/24 06:01:43;;;;;;;11.30;10.20;;;;;;;12.81;71.29;101243.61;112830;1238;21965;-78
2023/09/24 06:04:24;;;;;;;8.00;7.20;;;;;;;12.88;71.18;101244.42;113311;1233;22716;-77
2023/09/24 06:07:11;;;;;;;9.50;7.60;;;;;;;13.02;70.68;101255.84;113078;1233;21945;-78
2023/09/24 06:10:04;;;;;;;8.10;7.40;;;;;;;13.13;70.60;101256.89;112677;1239;22160;-77
2023/09/24 06:12:53;;;;;;;9.10;7.50;;;;;;;13.25;70.63;101255.05;111942;1245;21960;-77
2023/09/24 06:15:31;;;;;;;8.20;7.20;;;;;;;13.40;70.57;101268.02;111875;1245;21959;-77
2023/09/24 06:18:45;;;;;;;;;;;;;;;;;;;;;
2023/09/24 06:21:16;;;;;;;8.10;6.50;;;;;;;13.63;69.70;101282.76;111361;1252;21961;-77
2023/09/24 06:23:44;;;;;;;8.20;7.30;;;;;;;13.78;69.52;101283.10;110944;1257;21978;-76
2023/09/24 06:26:15;;;;;;;9.10;6.50;;;;;;;13.92;69.44;101287.50;110974;1256;23791;-77
2023/09/24 06:28:43;;;;;;;8.80;6.60;;;;;;;14.07;68.96;101289.77;111149;1252;23793;-77
2023/09/24 06:31:23;;;;;;;8.20;6.90;;;;;;;14.22;68.97;101297.77;111657;1246;21985;-77
2023/09/24 06:33:57;;;;;;;9.30;6.50;;;;;;;14.44;68.93;101298.51;111734;1247;22047;-79
2023/09/24 06:36:28;;;;;;;10.20;6.70;;;;;;;14.67;68.55;101296.23;111839;1246;21964;-77
2023/09/24 06:39:07;;;;;;;6.70;6.10;;;;;;;14.91;68.13;101291.42;112236;1239;23689;-84
2023/09/24 06:42:04;;;;;;;8.80;6.70;;;;;;;15.16;67.54;101293.19;112521;1239;22279;-78
2023/09/24 07:04:55;;;;;;;;;;;;;;;;;;;;;
2023/09/24 07:08:54;;;;;;;6.80;5.40;;;;;;;18.27;54.59;101312.58;110113;1227;3745625;-76
2023/09/24 07:13:05;;;;;;;;;;;;;;;;;;;;;
2023/09/24 07:17:33;;;;;;;7.40;5.70;;;;;;;17.92;56.35;101311.13;111668;1249;21955;-76
2023/09/24 07:21:49;;;;;;;6.20;5.60;;;;;;;17.94;56.10;101318.91;111595;1249;23078;-77
2023/09/24 07:26:01;;;;;;;9.60;5.60;;;;;;;17.93;56.60;101324.09;111196;1254;22069;-77
2023/09/24 07:29:45;;;;;;;7.70;6.30;;;;;;;17.99;56.47;101326.77;111237;1254;21987;-76
2023/09/24 07:33:15;;;;;;;;;;;;;;;;;;;;;
2023/09/24 07:36:56;;;;;;;;;;;;;;;;;;;;;
2023/09/24 07:41:05;;;;;;;;;;;;;;;;;;;;;
2023/09/24 07:46:12;;;;;;;;;;;;;;;;;;;;;
2023/09/24 07:49:08;;;;;;;;;;;;;;;;;;;;;
2023/09/24 07:53:27;;;;;;;8.50;6.50;;;;;;;19.01;56.95;101356.75;111165;1257;22398;-79
2023/09/24 07:57:33;;;;;;;7.20;5.40;;;;;;;19.77;56.02;101364.16;110429;1265;21978;-80
2023/09/24 08:01:26;;;;;;;;;;;;;;;;;;;;;
2023/09/24 08:04:58;;;;;;;10.00;7.00;;;;;;;20.82;52.81;101366.50;109302;1274;21977;-80
2023/09/24 08:08:28;;;;;;;;;;;;;;;;;;;;;
2023/09/24 08:12:22;;;;;;;;;;;;;;;;;;;;;
2023/09/24 08:15:36;;;;;;;;;;;;;;;;;;;;;
2023/09/24 08:18:32;;;;;;;10.40;5.70;;;;;;;22.37;48.47;101364.73;108683;1280;21992;-80
2023/09/24 08:21:19;;;;;;;9.00;5.40;;;;;;;22.62;47.48;101358.52;108757;1280;22022;-79
2023/09/24 08:24:41;;;;;;;;;;;;;;;;;;;;;
2023/09/24 08:28:02;;;;;;;6.20;5.60;;;;;;;22.85;46.84;101371.16;109483;1269;22481;-80
2023/09/24 08:31:11;;;;;;;6.00;5.40;;;;;;;23.22;46.05;101371.80;109386;1273;21994;-79
2023/09/24 08:34:21;;;;;;;;;;;;;;;;;;;;;
2023/09/24 08:37:12;;;;;;;;;;;;;;;;;;;;;
2023/09/24 08:39:51;;;;;;;6.90;5.00;;;;;;;24.03;44.10;101376.88;110151;1262;24308;-80
2023/09/24 08:43:34;;;;;;;;;;;;;;;;;;;;;
2023/09/24 08:47:06;;;;;;;;;;;;;;;;;;;;;
2023/09/24 08:50:41;;;;;;;10.30;9.20;;;;;;;23.84;41.55;101380.80;109953;1266;23103;-79
2023/09/24 08:54:44;;;;;;;5.80;5.10;;;;;;;23.64;43.29;101383.60;110646;1263;21983;-79
2023/09/24 08:58:23;;;;;;;;;;;;;;;;;;;;;
2023/09/24 09:02:30;;;;;;;;;;;;;;;;;;;;;
2023/09/24 09:06:21;;;;;;;;;;;;;;;;;;;;;
2023/09/24 09:09:24;;;;;;;10.30;5.40;;;;;;;23.95;43.63;101388.70;108987;1276;23144;-81
2023/09/24 09:12:50;;;;;;;6.90;4.70;;;;;;;24.40;42.88;101396.35;109142;1276;22409;-81
2023/09/24 09:15:41;;;;;;;5.20;4.10;;;;;;;24.78;42.21;101401.30;109110;1276;24422;-80
2023/09/24 09:18:35;;;;;;;5.20;4.60;;;;;;;25.08;41.00;101402.77;109160;1276;22266;-82
2023/09/24 09:21:32;;;;;;;6.80;5.30;;;;;;;25.18;40.24;101400.54;109160;1276;23798;-82
2023/09/24 09:24:34;;;;;;;5.70;4.40;;;;;;;25.41;40.49;101406.12;109538;1270;22012;-79
2023/09/24 09:27:50;;;;;;;5.90;4.50;;;;;;;25.65;39.47;101406.45;109889;1264;22096;-86
2023/09/24 09:30:28;;;;;;;5.40;4.40;;;;;;;25.74;38.17;101403.20;110863;1258;22005;-81
2023/09/24 09:33:33;;;;;;;7.50;4.00;;;;;;;25.61;37.93;101397.34;110971;1258;22021;-82
2023/09/24 09:44:32;;;;;;;6.50;5.80;;;;;;;25.46;38.51;101415.67;109612;1269;21985;-82
2023/09/24 09:47:52;;;;;;;;;;;;;;;;;;;;;
2023/09/24 09:51:07;;;;;;;;;;;;;;;;;;;;;
2023/09/24 09:53:52;;;;;;;5.30;4.00;;;;;;;25.89;37.74;101417.96;110504;1263;22311;-82
2023/09/24 09:57:11;;;;;;;12.80;4.90;;;;;;;26.04;37.79;101415.25;110246;1263;23600;-79
2023/09/24 10:01:05;;;;;;;;;;;;;;;;;;;;;
2023/09/24 10:03:58;;;;;;;;;;;;;;;;;;;;;
2023/09/24 10:07:05;;;;;;;6.40;3.20;;;;;;;25.94;35.36;101415.72;110749;1261;22144;-79
2023/09/24 10:09:58;;;;;;;4.70;3.00;;;;;;;25.62;36.46;101420.09;110752;1261;22474;-81
2023/09/24 10:12:45;;;;;;;5.10;3.20;;;;;;;25.60;36.59;101417.20;110551;1261;21976;-80
2023/09/24 10:15:43;;;;;;;4.30;2.60;;;;;;;25.52;36.29;101418.41;111598;1250;21958;-80
2023/09/24 10:18:42;;;;;;;;;;;;;;;;;;;;;
2023/09/24 10:22:14;;;;;;;4.60;3.30;;;;;;;25.56;35.55;101416.67;113010;1239;23597;-80
2023/09/24 10:26:01;;;;;;;3.80;2.90;;;;;;;25.17;34.82;101430.41;112840;1239;23529;-81
2023/09/24 10:29:54;;;;;;;;;;;;;;;;;;;;;
2023/09/24 10:34:07;;;;;;;6.30;3.90;;;;;;;24.86;36.94;101433.30;112756;1243;23066;-79
2023/09/24 10:37:44;;;;;;;;;;;;;;;;;;;;;
2023/09/24 10:41:15;;;;;;;3.10;2.70;;;;;;;24.06;36.16;101440.79;112494;1244;23578;-79
2023/09/24 10:44:41;;;;;;;;;;;;;;;;;;;;;
2023/09/24 10:48:48;;;;;;;;;;;;;;;;;;;;;
2023/09/24 10:51:46;;;;;;;4.60;3.00;;;;;;;23.12;38.04;101425.98;111912;1249;22128;-79
2023/09/24 10:55:09;;;;;;;3.90;2.30;;;;;;;22.86;39.11;101420.22;111358;1246;21999;-79
2023/09/24 10:58:31;;;;;;;7.20;2.20;;;;;;;22.92;38.84;101424.56;111810;1246;21964;-79
2023/09/24 11:01:33;;;;;;;5.90;4.70;;;;;;;22.91;38.60;101418.13;111871;1246;22435;-79
2023/09/24 11:05:12;;;;;;;7.80;2.80;;;;;;;22.94;38.67;101422.13;112117;1246;24291;-79
2023/09/24 11:08:19;;;;;;;;;;;;;;;;;;;;;
2023/09/24 11:11:39;;;;;;;;;;;;;;;;;;;;;
2023/09/24 11:14:45;;;;;;;4.30;2.10;;;;;;;22.51;38.56;101417.27;111856;1248;22697;-81
2023/09/24 11:17:47;;;;;;;4.10;2.10;;;;;;;22.44;38.96;101418.46;112098;1245;23148;-81
2023/09/24 11:21:14;;;;;;;;;;;;;;;;;;;;;
2023/09/24 11:24:53;;;;;;;;;;;;;;;;;;;;;
2023/09/24 11:28:14;;;;;;;3.10;1.70;;;;;;;22.14;39.08;101418.92;111616;1250;23063;-79
2023/09/24 11:32:54;;;;;;;3.30;1.40;;;;;;;22.02;39.32;101415.14;111236;1256;22054;-78
2023/09/24 11:36:52;;;;;;;;;;;;;;;;;;;;;
2023/09/24 11:39:53;;;;;;;;;;;;;;;;;;;;;
2023/09/24 11:43:28;;;;;;;4.40;1.80;;;;;;;21.82;40.11;101418.48;110535;1260;22057;-78
2023/09/24 11:47:32;;;;;;;4.90;2.00;;;;;;;21.90;40.37;101419.73;110353;1264;22193;-78
2023/09/24 11:55:09;;;;;;;;;;;;;;;;;;;;;
2023/09/24 11:58:11;;;;;;;4.00;3.00;;;;;;;21.96;40.19;101409.02;109936;1269;21987;-79
2023/09/24 12:01:27;;;;;;;;;;;;;;;;;;;;;
2023/09/24 12:04:45;;;;;;;5.80;2.50;;;;;;;22.04;40.24;101415.70;109780;1269;21978;-79
2023/09/24 12:08:16;;;;;;;6.30;2.60;;;;;;;22.07;40.52;101416.40;109193;1277;22199;-81
2023/09/24 12:11:57;;;;;;;;;;;;;;;;;;;;;
2023/09/24 12:45:44;;;;;;;;;;;;;;;;;;;;;
2023/09/24 12:50:03;;;;;;;4.00;1.50;;;;;;;20.55;41.83;101406.23;109188;1273;22157;-77
2023/09/24 13:12:16;;;;;;;;;;;;;;;;;;;;;
2023/09/24 13:16:43;;;;;;;3.10;2.40;;;;;;;21.24;41.38;101395.76;111575;1249;23008;-79
2023/09/24 13:25:47;;;;;;;;;;;;;;;;;;;;;
2023/09/24 13:28:36;;;;;;;4.30;2.20;;;;;;;20.67;42.33;101425.29;108387;1284;22592;-78
2023/09/24 13:32:32;;;;;;;;;;;;;;;;;;;;;
2023/09/24 13:36:58;;;;;;;;;;;;;;;;;;;;;
2023/09/24 13:53:07;;;;;;;;;;;;;;;;;;;;;
2023/09/24 13:57:11;;;;;;;3.20;2.00;;;;;;;20.80;41.94;101425.57;102719;1263;21979;-79
2023/09/24 14:00:36;;;;;;;5.00;1.80;;;;;;;20.54;42.02;101426.60;105371;1271;5240137;-78
2023/09/24 14:06:41;;;;;;;;;;;;;;;;;;;;;
2023/09/24 14:32:43;;;;;;;;;;;;;;;;;;;;;
2023/09/24 14:37:25;;;;;;;4.50;1.70;;;;;;;20.42;42.16;101434.77;111822;1252;24122;-80
2023/09/24 14:41:34;;;;;;;3.10;2.10;;;;;;;20.23;42.82;101438.94;111231;1257;23099;-80
2023/09/24 14:45:27;;;;;;;3.00;1.80;;;;;;;20.11;42.88;101439.84;110800;1264;22002;-80
2023/09/24 14:59:02;;;;;;;3.40;1.40;;;;;;;19.76;43.29;101441.05;109505;1273;22451;-78
2023/09/24 15:01:40;;;;;;;4.60;1.60;;;;;;;19.65;43.39;101433.19;108817;1275;23066;-78
2023/09/24 15:04:36;;;;;;;2.90;1.70;;;;;;;19.66;43.57;101447.25;108747;1275;24335;-80
2023/09/24 15:07:20;;;;;;;2.40;1.70;;;;;;;19.66;43.67;101448.35;108773;1275;21981;-80
2023/09/24 15:09:59;;;;;;;;;;;;;;;19.64;43.66;101448.41;108868;1275;21964;-80
2023/09/24 15:13:17;;;;;;;;;;;;;;;;;;;;;
2023/09/24 15:16:11;;;;;;;5.00;2.50;;;;;;;19.51;44.20;101455.17;109197;1273;23635;-79
2023/09/24 15:19:16;;;;;;;2.80;1.90;;;;;;;19.49;44.49;101454.77;109378;1271;22765;-82
2023/09/24 15:22:17;;;;;;;4.80;2.10;;;;;;;19.48;44.63;101456.06;109622;1262;22012;-81
2023/09/24 15:24:59;;;;;;;5.50;2.00;;;;;;;19.46;44.81;101458.33;109831;1270;21986;-81
2023/09/24 15:28:13;;;;;;;3.50;1.90;;;;;;;19.45;44.77;101458.35;109768;1266;23632;-82
2023/09/24 15:32:11;;;;;;;2.10;1.50;;;;;;;19.38;44.82;101461.42;109992;1266;21972;-81
2023/09/24 15:35:16;;;;;;;;;;;;;;;;;;;;;
2023/09/24 15:39:18;;;;;;;;;;;;;;;;;;;;;
2023/09/24 15:42:54;;;;;;;3.10;2.30;;;;;;;19.17;45.21;101456.94;109575;1269;23038;-83
2023/09/24 15:47:07;;;;;;;;;;;;;;;;;;;;;
2023/09/24 16:05:31;;;;;;;5.00;2.00;;;;;;;20.55;43.09;101478.42;108355;1285;557010;-80
2023/09/24 16:09:17;;;;;;;;;;;;;;;;;;;;;
2023/09/24 16:13:41;;;;;;;;;;;;;;;;;;;;;
2023/09/24 16:22:02;;;;;;;;;;;;;;;;;;;;;
2023/09/24 16:25:37;;;;;;;;;;;;;;;;;;;;;
2023/09/24 16:39:42;;;;;;;8.00;3.50;;;;;;;19.65;45.69;101501.65;108341;1279;548695;-79
2023/09/24 16:42:51;;;;;;;;;;;;;;;;;;;;;
2023/09/24 16:45:38;;;;;;;13.70;5.60;;;;;;;19.01;46.73;101508.82;109756;1267;22002;-79
2023/09/24 16:48:36;;;;;;;;;;;;;;;;;;;;;
2023/09/24 16:52:06;;;;;;;7.70;5.10;;;;;;;18.34;48.44;101513.42;109972;1263;23711;-78
2023/09/24 16:55:05;;;;;;;10.40;7.70;;;;;;;18.12;49.01;101515.09;109215;1273;21988;-78
2023/09/24 16:58:19;;;;;;;;;;;;;;;;;;;;;
2023/09/24 17:01:47;;;;;;;;;;;;;;;;;;;;;
2023/09/24 17:05:21;;;;;;;;;;;;;;;;;;;;;
2023/09/24 17:13:26;;;;;;;9.10;7.60;;;;;;;17.19;51.57;101550.02;108340;1284;22174;-79
2023/09/24 17:16:56;;;;;;;;;;;;;;;;;;;;;
2023/09/24 17:20:12;;;;;;;8.00;5.90;;;;;;;17.04;52.07;101552.98;108339;1286;22001;-78
2023/09/24 17:23:30;;;;;;;;;;;;;;;;;;;;;
2023/09/24 17:26:25;;;;;;;9.30;6.20;;;;;;;16.88;52.64;101562.14;108066;1290;23065;-81
2023/09/24 17:28:55;;;;;;;24.90;21.00;;;;;;;16.84;52.83;101566.89;108161;1289;22059;-81
2023/09/24 17:31:40;;;;;;;;;;;;;;;;;;;;;
2023/09/24 17:34:29;;;;;;;;;;;;;;;;;;;;;
2023/09/24 17:37:29;;;;;;;9.50;6.50;;;;;;;16.64;53.76;101572.32;108281;1284;22004;-80
2023/09/24 17:40:17;;;;;;;9.90;6.70;;;;;;;16.58;53.96;101576.09;108278;1285;22471;-79
2023/09/24 17:43:20;;;;;;;11.40;6.70;;;;;;;16.50;54.27;101575.18;108498;1284;21992;-78
2023/09/24 17:46:29;;;;;;;13.10;11.70;;;;;;;16.42;54.52;101572.39;108439;1285;21992;-80
2023/09/24 17:49:37;;;;;;;18.30;14.10;;;;;;;16.35;54.72;101574.25;108603;1273;22098;-79
2023/09/24 17:53:39;;;;;;;11.30;8.30;;;;;;;16.22;55.15;101577.63;109294;1273;23036;-79
2023/09/24 17:56:54;;;;;;;12.00;8.60;;;;;;;16.13;55.37;101582.02;109916;1265;21977;-81
2023/09/24 17:59:46;;;;;;;10.30;7.00;;;;;;;16.10;55.61;101587.61;110612;1256;21964;-79
2023/09/24 18:03:17;;;;;;;12.70;7.40;;;;;;;16.02;55.88;101592.66;111016;1256;23550;-80
2023/09/24 18:06:54;;;;;;;;;;;;;;;;;;;;;
2023/09/24 18:10:51;;;;;;;;;;;;;;;;;;;;;
2023/09/24 18:15:31;;;;;;;;;;;;;;;;;;;;;
2023/09/24 18:19:18;;;;;;;;;;;;;;;;;;;;;
2023/09/24 18:26:12;;;;;;;14.00;10.00;;;;;;;15.57;57.07;101625.29;107697;1296;22762;-81
2023/09/24 18:29:20;;;;;;;17.10;10.30;;;;;;;15.55;57.33;101622.40;107456;1296;22009;-81
2023/09/24 18:32:24;;;;;;;;;;;;;;;;;;;;;
2023/09/24 18:35:56;;;;;;;;;;;;;;;;;;;;;
2023/09/24 18:39:23;;;;;;;14.60;9.60;;;;;;;15.32;58.02;101630.99;108649;1282;21990;-84
2023/09/24 18:42:30;;;;;;;13.00;10.20;;;;;;;15.22;58.47;101633.65;108215;1290;22057;-82
2023/09/24 18:48:51;;;;;;;18.80;14.50;;;;;;;15.11;58.95;101641.77;107980;1294;22016;-80
2023/09/24 18:52:01;;;;;;;21.80;14.60;;;;;;;15.21;59.10;101634.05;107855;1288;544088;-81
2023/09/24 18:59:25;;;;;;;21.20;13.50;;;;;;;15.02;59.19;101655.23;109659;1264;22920;-80
2023/09/24 19:02:49;;;;;;;19.40;12.40;;;;;;;14.94;59.29;101654.64;106989;1273;3205553;-81
2023/09/24 19:10:20;;;;;;;;;;;;;;;;;;;;;
2023/09/24 19:13:28;;;;;;;16.90;13.50;;;;;;;14.68;60.06;101662.88;108956;1280;22015;-79
2023/09/24 19:17:29;;;;;;;17.00;12.70;;;;;;;14.60;60.37;101663.14;108878;1280;22128;-81
2023/09/24 19:21:17;;;;;;;22.90;16.60;;;;;;;14.50;60.62;101662.39;108822;1281;21992;-78
2023/09/24 19:25:43;;;;;;;20.90;13.70;;;;;;;14.42;60.75;101660.02;109319;1275;22288;-81
2023/09/24 19:29:49;;;;;;;20.00;12.60;;;;;;;14.31;60.97;101652.88;109435;1271;22141;-79
2023/09/24 19:34:04;;;;;;;;;;;;;;;;;;;;;
2023/09/24 19:38:32;;;;;;;;;;;;;;;;;;;;;
2023/09/24 19:41:51;;;;;;;;;;;;;;;;;;;;;
2023/09/24 19:44:46;;;;;;;16.40;11.00;;;;;;;14.23;61.37;101664.17;110047;1268;23084;-78
2023/09/24 19:48:00;;;;;;;;;;;;;;;;;;;;;
2023/09/24 19:56:31;;;;;;;16.90;11.10;;;;;;;13.97;62.26;101656.92;109178;1275;23089;-78
2023/09/24 20:00:39;;;;;;;;;;;;;;;;;;;;;
2023/09/24 20:19:06;;;;;;;;;;;;;;;;;;;;;
2023/09/24 20:23:12;;;;;;;;;;;;;;;;;;;;;
2023/09/24 20:26:21;;;;;;;11.10;8.90;;;;;;;14.42;61.56;101654.24;113051;1238;23678;-79
2023/09/24 20:30:27;;;;;;;14.80;8.80;;;;;;;14.11;62.29;101654.55;112883;1238;23021;-80
2023/09/24 20:34:30;;;;;;;13.20;9.80;;;;;;;13.82;62.99;101657.41;112195;1245;24362;-79
2023/09/24 20:38:09;;;;;;;18.20;9.30;;;;;;;13.63;63.54;101656.73;111738;1245;21981;-81
2023/09/24 20:42:06;;;;;;;12.40;8.70;;;;;;;13.53;63.92;101657.39;111120;1257;23069;-81
2023/09/24 20:46:09;;;;;;;21.70;10.40;;;;;;;13.42;64.23;101665.38;110987;1257;22542;-81
2023/09/24 20:49:29;;;;;;;11.80;9.30;;;;;;;13.29;64.63;101660.65;111197;1250;22008;-81
2023/09/24 20:53:32;;;;;;;;;;;;;;;;;;;;;
2023/09/24 20:57:25;;;;;;;10.60;8.70;;;;;;;13.11;64.98;101660.63;113028;1239;21957;-79
2023/09/24 21:01:08;;;;;;;;;;;;;;;;;;;;;